Time;durP1;ratioP1;P1;durP2;ratioP2;P2;SDS_P1;SDS_P2;PMS_P1;PMS_P2;Temp;Humidity;BMP_temperature;BMP_pressure;BME280_temperature;BME280_humidity;BME280_pressure;Samples;Min_cycle;Max_cycle;Signal;HPM_P1;HPM_P2
2022/06/21 00:00:27;;;;;;;;;;;;;;;;;;4978452;28;136457;-67
2022/06/21 00:02:53;;;;;;;;;;;;;;;;;;4990221;28;122194;-68
2022/06/21 00:05:19;;;;;;;;;;;;;;;;;;5005912;27;117089;-68
2022/06/21 00:07:46;;;;;;;;;;;;;;;;;;5006841;28;127931;-68
2022/06/21 00:10:12;;;;;;;;;;;;;;;;;;4994862;28;123666;-68
2022/06/21 00:12:38;;;;;;;;;;;;;;;;;;5006984;28;135669;-68
2022/06/21 00:15:05;;;;;;;;;;;;;;;;;;5007145;28;130313;-68
2022/06/21 00:17:31;;;;;;;;;;;;;;;;;;5011801;28;122625;-68
2022/06/21 00:19:57;;;;;;;;;;;;;;;;;;5008559;28;126177;-68
2022/06/21 00:22:23;;;;;;;;;;;;;;;;;;4991187;28;107164;-68
2022/06/21 00:24:51;;;;;;;;;;;;;;;;;;4989080;28;135289;-68
2022/06/21 00:27:17;;;;;;;;;;;;;;;;;;5007886;28;132746;-68
2022/06/21 00:29:44;;;;;;;;;;;;;;;;;;4988631;28;106068;-66
2022/06/21 00:32:10;;;;;;;;;;;;;;;;;;5008080;28;126672;-68
2022/06/21 00:34:37;;;;;;;;;;;;;;;;;;5007128;28;137284;-67
2022/06/21 00:37:03;;;;;;;;;;;;;;;;;;5008499;28;114422;-68
2022/06/21 00:39:29;;;;;;;;;;;;;;;;;;5012477;28;128986;-67
2022/06/21 00:41:55;;;;;;;;;;;;;;;;;;5006946;27;109712;-68
2022/06/21 00:44:22;;;;;;;;;;;;;;;;;;5004959;28;135126;-68
2022/06/21 00:46:48;;;;;;;;;;;;;;;;;;5006405;28;130134;-68
2022/06/21 00:49:14;;;;;;;;;;;;;;;;;;4989899;28;111815;-68
2022/06/21 00:51:41;;;;;;;;;;;;;;;;;;5004047;28;131987;-68
2022/06/21 00:54:07;;;;;;;;;;;;;;;;;;5007301;28;130884;-68
2022/06/21 00:56:33;;;;;;;;;;;;;;;;;;5009480;28;106679;-68
2022/06/21 00:59:00;;;;;;;;;;;;;;;;;;5007417;27;106693;-68
2022/06/21 01:01:26;;;;;;;;;;;;;;;;;;5009967;28;135279;-68
2022/06/21 01:03:53;;;;;;;;;;;;;;;;;;5007642;28;138135;-68
2022/06/21 01:06:19;;;;;;;;;;;;;;;;;;5008019;28;122013;-68
2022/06/21 01:08:45;;;;;;;;;;;;;;;;;;5005349;28;122015;-68
2022/06/21 01:11:12;;;;;;;;;;;;;;;;;;4997297;28;135286;-68
2022/06/21 01:13:38;;;;;;;;;;;;;;;;;;5020623;22;114523;-68
2022/06/21 01:16:04;;;;;;;;;;;;;;;;;;5048379;27;106795;-68
2022/06/21 01:18:31;;;;;;;;;;;;;;;;;;5049925;27;132397;-68
2022/06/21 01:20:57;;;;;;;;;;;;;;;;;;5048603;27;127341;-67
2022/06/21 01:23:23;;;;;;;;;;;;;;;;;;5042623;27;120602;-67
2022/06/21 01:25:49;;;;;;;;;;;;;;;;;;5046724;27;119428;-67
2022/06/21 01:28:16;;;;;;;;;;;;;;;;;;5041958;27;122163;-69
2022/06/21 01:30:42;;;;;;;;;;;;;;;;;;5036723;27;134885;-67
2022/06/21 01:33:08;;;;;;;;;;;;;;;;;;5040754;27;136086;-67
2022/06/21 01:35:35;;;;;;;;;;;;;;;;;;5048517;27;113360;-68
2022/06/21 01:38:01;;;;;;;;;;;;;;;;;;5050095;27;106622;-68
2022/06/21 01:40:27;;;;;;;;;;;;;;;;;;5043269;27;136026;-68
2022/06/21 01:42:54;;;;;;;;;;;;;;;;;;5052279;27;121237;-68
2022/06/21 01:45:20;;;;;;;;;;;;;;;;;;5051546;27;133471;-68
2022/06/21 01:47:46;;;;;;;;;;;;;;;;;;5041547;27;119546;-68
2022/06/21 01:50:13;;;;;;;;;;;;;;;;;;5047502;27;135502;-68
2022/06/21 01:52:39;;;;;;;;;;;;;;;;;;5042644;27;135644;-68
2022/06/21 01:55:05;;;;;;;;;;;;;;;;;;5045660;27;108874;-68
2022/06/21 01:57:31;;;;;;;;;;;;;;;;;;5050385;27;121968;-68
2022/06/21 01:59:58;;;;;;;;;;;;;;;;;;5053478;27;117225;-68
2022/06/21 02:02:25;;;;;;;;;;;;;;;;;;5048624;27;120749;-69
2022/06/21 02:04:52;;;;;;;;;;;;;;;;;;5058927;27;116622;-68
2022/06/21 02:07:19;;;;;;;;;;;;;;;;;;5050150;27;111838;-68
2022/06/21 02:09:45;;;;;;;;;;;;;;;;;;5040471;27;128692;-68
2022/06/21 02:12:11;;;;;;;;;;;;;;;;;;5037740;27;136205;-68
2022/06/21 02:14:37;;;;;;;;;;;;;;;;;;5044863;27;120194;-68
2022/06/21 02:17:04;;;;;;;;;;;;;;;;;;5045717;27;135156;-68
2022/06/21 02:19:30;;;;;;;;;;;;;;;;;;5042577;27;134840;-68
2022/06/21 02:21:56;;;;;;;;;;;;;;;;;;5046433;27;115425;-68
2022/06/21 02:24:23;;;;;;;;;;;;;;;;;;5043304;27;111644;-68
2022/06/21 02:26:49;;;;;;;;;;;;;;;;;;5054402;27;136368;-68
2022/06/21 02:29:15;;;;;;;;;;;;;;;;;;5039749;27;128124;-68
2022/06/21 02:31:42;;;;;;;;;;;;;;;;;;5048654;27;131028;-68
2022/06/21 02:34:08;;;;;;;;;;;;;;;;;;5050632;27;121771;-68
2022/06/21 02:36:34;;;;;;;;;;;;;;;;;;5031951;27;137794;-68
2022/06/21 02:39:01;;;;;;;;;;;;;;;;;;5051662;27;107269;-68
2022/06/21 02:41:28;;;;;;;;;;;;;;;;;;5043115;27;123038;-68
2022/06/21 02:43:54;;;;;;;;;;;;;;;;;;5050767;27;107736;-68
2022/06/21 02:46:20;;;;;;;;;;;;;;;;;;5046500;27;128222;-68
2022/06/21 02:48:47;;;;;;;;;;;;;;;;;;5046692;27;122029;-68
2022/06/21 02:51:13;;;;;;;;;;;;;;;;;;5049569;27;127344;-68
2022/06/21 02:53:39;;;;;;;;;;;;;;;;;;5049460;27;122337;-68
2022/06/21 02:56:06;;;;;;;;;;;;;;;;;;5047012;27;114585;-68
2022/06/21 02:58:32;;;;;;;;;;;;;;;;;;5047672;27;135853;-68
2022/06/21 03:00:58;;;;;;;;;;;;;;;;;;5043472;27;115999;-67
2022/06/21 03:03:24;;;;;;;;;;;;;;;;;;5037666;27;136370;-68
2022/06/21 03:05:51;;;;;;;;;;;;;;;;;;5049496;27;135502;-68
2022/06/21 03:08:17;;;;;;;;;;;;;;;;;;5036897;27;106117;-68
2022/06/21 03:10:44;;;;;;;;;;;;;;;;;;5049261;27;135715;-67
2022/06/21 03:13:10;;;;;;;;;;;;;;;;;;5045840;27;106127;-67
2022/06/21 03:15:36;;;;;;;;;;;;;;;;;;5047340;27;126766;-67
2022/06/21 03:18:04;;;;;;;;;;;;;;;;;;5035855;27;119154;-67
2022/06/21 03:20:30;;;;;;;;;;;;;;;;;;5050458;27;120473;-67
2022/06/21 03:22:57;;;;;;;;;;;;;;;;;;5051962;27;106342;-68
2022/06/21 03:25:23;;;;;;;;;;;;;;;;;;5048686;27;135778;-67
2022/06/21 03:27:50;;;;;;;;;;;;;;;;;;5050548;27;124392;-67
2022/06/21 03:30:16;;;;;;;;;;;;;;;;;;5050078;27;107494;-68
2022/06/21 03:32:42;;;;;;;;;;;;;;;;;;5048996;27;133923;-68
2022/06/21 03:35:09;;;;;;;;;;;;;;;;;;5051077;27;116579;-68
2022/06/21 03:37:36;;;;;;;;;;;;;;;;;;5041386;27;121577;-68
2022/06/21 03:42:47;;;;;;;;;;;;;;;;;;5051019;27;106995;-68
2022/06/21 03:45:13;;;;;;;;;;;;;;;;;;5046972;27;131686;-67
2022/06/21 03:47:39;;;;;;;;;;;;;;;;;;5050776;27;118174;-68
2022/06/21 03:50:06;;;;;;;;;;;;;;;;;;5048421;27;135563;-68
2022/06/21 03:52:41;;;;;;;;;;;;;;;;;;5049863;27;135461;-68
2022/06/21 03:55:08;;;;;;;;;;;;;;;;;;5053413;27;119894;-68
2022/06/21 03:57:35;;;;;;;;;;;;;;;;;;5048092;27;135879;-68
2022/06/21 04:00:02;;;;;;;;;;;;;;;;;;5035736;27;117155;-68
2022/06/21 04:02:30;;;;;;;;;;;;;;;;;;5034689;27;106206;-68
2022/06/21 04:04:56;;;;;;;;;;;;;;;;;;5049271;27;131616;-68
2022/06/21 04:07:23;;;;;;;;;;;;;;;;;;5046440;27;106151;-67
2022/06/21 04:09:49;;;;;;;;;;;;;;;;;;5048519;27;135971;-68
2022/06/21 04:12:15;;;;;;;;;;;;;;;;;;5048859;27;130533;-68
2022/06/21 04:14:42;;;;;;;;;;;;;;;;;;5054059;27;106324;-68
2022/06/21 04:17:08;;;;;;;;;;;;;;;;;;5063344;27;134740;-68
2022/06/21 04:19:34;;;;;;;;;;;;;;;;;;5048463;27;122483;-68
2022/06/21 04:22:01;;;;;;;;;;;;;;;;;;5059231;27;117319;-68
2022/06/21 04:24:27;;;;;;;;;;;;;;;;;;5048164;27;111319;-68
2022/06/21 04:26:54;;;;;;;;;;;;;;;;;;5047462;27;122067;-68
2022/06/21 04:29:20;;;;;;;;;;;;;;;;;;5048119;27;123023;-68
2022/06/21 04:31:47;;;;;;;;;;;;;;;;;;5066692;27;132586;-67
2022/06/21 04:34:13;;;;;;;;;;;;;;;;;;5057579;27;114935;-67
2022/06/21 04:36:39;;;;;;;;;;;;;;;;;;5042569;27;123435;-67
2022/06/21 04:39:05;;;;;;;;;;;;;;;;;;5043537;27;123222;-68
2022/06/21 04:41:32;;;;;;;;;;;;;;;;;;5055133;27;123817;-67
2022/06/21 04:43:58;;;;;;;;;;;;;;;;;;5049548;27;111118;-67
2022/06/21 04:46:25;;;;;;;;;;;;;;;;;;5048932;27;123316;-67
2022/06/21 04:48:52;;;;;;;;;;;;;;;;;;5055920;27;129476;-67
2022/06/21 04:51:18;;;;;;;;;;;;;;;;;;5049231;27;133433;-68
2022/06/21 04:53:45;;;;;;;;;;;;;;;;;;5051694;27;117848;-67
2022/06/21 04:56:11;;;;;;;;;;;;;;;;;;5050991;27;128769;-67
2022/06/21 04:58:38;;;;;;;;;;;;;;;;;;5051126;27;137111;-67
2022/06/21 05:01:29;;;;;;;;;;;;;;;;;;5041216;27;106263;-68
2022/06/21 05:03:50;;;;;;;;;;;;;;;;;;5046679;27;124972;-68
2022/06/21 05:06:17;;;;;;;;;;;;;;;;;;5045249;27;124801;-68
2022/06/21 05:08:43;;;;;;;;;;;;;;;;;;5047484;27;136374;-68
2022/06/21 05:11:10;;;;;;;;;;;;;;;;;;5049082;27;125432;-67
2022/06/21 05:13:36;;;;;;;;;;;;;;;;;;5046275;27;121972;-68
2022/06/21 05:16:02;;;;;;;;;;;;;;;;;;5035492;27;120781;-67
2022/06/21 05:18:28;;;;;;;;;;;;;;;;;;5048969;27;124251;-69
2022/06/21 05:20:55;;;;;;;;;;;;;;;;;;5041481;27;113441;-67
2022/06/21 05:23:21;;;;;;;;;;;;;;;;;;5045223;27;122978;-68
2022/06/21 05:25:47;;;;;;;;;;;;;;;;;;5044521;27;121836;-67
2022/06/21 05:28:14;;;;;;;;;;;;;;;;;;5038574;27;126106;-67
2022/06/21 05:30:40;;;;;;;;;;;;;;;;;;5039599;27;120479;-68
2022/06/21 05:33:06;;;;;;;;;;;;;;;;;;5038137;27;106796;-67
2022/06/21 05:35:33;;;;;;;;;;;;;;;;;;5049017;27;133068;-68
2022/06/21 05:37:59;;;;;;;;;;;;;;;;;;5031295;27;134259;-67
2022/06/21 05:40:25;;;;;;;;;;;;;;;;;;5034592;27;121689;-67
2022/06/21 05:42:52;;;;;;;;;;;;;;;;;;5046249;27;136487;-68
2022/06/21 05:45:18;;;;;;;;;;;;;;;;;;5043956;27;110628;-70
2022/06/21 05:47:44;;;;;;;;;;;;;;;;;;5043888;27;135279;-68
2022/06/21 05:50:10;;;;;;;;;;;;;;;;;;5036437;27;138217;-67
2022/06/21 05:52:37;;;;;;;;;;;;;;;;;;5054566;27;106215;-68
2022/06/21 05:55:04;;;;;;;;;;;;;;;;;;5044090;27;132868;-68
2022/06/21 05:57:30;;;;;;;;;;;;;;;;;;5038247;27;120384;-67
2022/06/21 05:59:59;;;;;;;;;;;;;;;;;;5028910;27;106600;-67
2022/06/21 06:02:25;;;;;;;;;;;;;;;;;;5041988;27;106924;-69
2022/06/21 06:04:52;;;;;;;;;;;;;;;;;;5045184;27;106447;-71
2022/06/21 06:07:18;;;;;;;;;;;;;;;;;;5042874;27;134571;-68
2022/06/21 06:09:44;;;;;;;;;;;;;;;;;;5036912;27;133451;-70
2022/06/21 06:12:11;;;;;;;;;;;;;;;;;;5033900;27;117828;-69
2022/06/21 06:14:37;;;;;;;;;;;;;;;;;;5026055;27;109236;-70
2022/06/21 06:17:03;;;;;;;;;;;;;;;;;;5038551;27;127570;-69
2022/06/21 06:19:30;;;;;;;;;;;;;;;;;;5047801;27;116644;-69
2022/06/21 06:21:56;;;;;;;;;;;;;;;;;;5048202;27;134139;-69
2022/06/21 06:24:22;;;;;;;;;;;;;;;;;;5050682;27;137567;-69
2022/06/21 06:26:49;;;;;;;;;;;;;;;;;;5044704;27;135553;-69
2022/06/21 06:29:15;;;;;;;;;;;;;;;;;;5026874;27;116723;-69
2022/06/21 06:31:41;;;;;;;;;;;;;;;;;;5030701;27;124014;-69
2022/06/21 06:34:08;;;;;;;;;;;;;;;;;;5041687;27;133547;-69
2022/06/21 06:36:34;;;;;;;;;;;;;;;;;;5036650;27;136134;-70
2022/06/21 06:39:00;;;;;;;;;;;;;;;;;;5033338;27;115341;-68
2022/06/21 06:41:27;;;;;;;;;;;;;;;;;;5037164;27;125254;-68
2022/06/21 06:43:53;;;;;;;;;;;;;;;;;;5029475;27;118503;-71
2022/06/21 06:46:20;;;;;;;;;;;;;;;;;;5050215;27;123342;-70
2022/06/21 06:48:46;;;;;;;;;;;;;;;;;;5049363;27;119501;-69
2022/06/21 06:51:13;;;;;;;;;;;;;;;;;;5049615;27;106250;-70
2022/06/21 06:53:39;;;;;;;;;;;;;;;;;;5051278;27;135048;-70
2022/06/21 06:56:05;;;;;;;;;;;;;;;;;;5047410;27;111896;-69
2022/06/21 06:58:32;;;;;;;;;;;;;;;;;;5049085;27;122265;-68
2022/06/21 07:00:58;;;;;;;;;;;;;;;;;;5043596;27;121898;-68
2022/06/21 07:03:24;;;;;;;;;;;;;;;;;;5047352;27;112136;-69
2022/06/21 07:05:51;;;;;;;;;;;;;;;;;;5047363;27;121937;-71
2022/06/21 07:08:17;;;;;;;;;;;;;;;;;;5054466;27;106758;-67
2022/06/21 07:10:43;;;;;;;;;;;;;;;;;;5048995;27;111275;-66
2022/06/21 07:13:09;;;;;;;;;;;;;;;;;;5053087;27;135411;-66
2022/06/21 07:15:36;;;;;;;;;;;;;;;;;;5050030;27;124579;-67
2022/06/21 07:18:03;;;;;;;;;;;;;;;;;;5045295;27;115750;-70
2022/06/21 07:20:29;;;;;;;;;;;;;;;;;;5041493;27;123138;-67
2022/06/21 07:22:55;;;;;;;;;;;;;;;;;;5041509;27;124437;-67
2022/06/21 07:25:22;;;;;;;;;;;;;;;;;;5039668;27;120314;-68
2022/06/21 07:27:48;;;;;;;;;;;;;;;;;;5045519;27;125691;-67
2022/06/21 07:30:16;;;;;;;;;;;;;;;;;;5047867;27;135890;-68
2022/06/21 07:32:42;;;;;;;;;;;;;;;;;;5047494;27;129386;-68
2022/06/21 07:35:09;;;;;;;;;;;;;;;;;;5055597;27;133160;-69
2022/06/21 07:37:35;;;;;;;;;;;;;;;;;;5048308;27;108198;-69
2022/06/21 07:40:01;;;;;;;;;;;;;;;;;;5038734;27;106695;-68
2022/06/21 07:42:28;;;;;;;;;;;;;;;;;;5044991;27;132741;-69
2022/06/21 07:44:54;;;;;;;;;;;;;;;;;;5051696;27;122976;-67
2022/06/21 07:47:21;;;;;;;;;;;;;;;;;;5047918;27;134893;-66
2022/06/21 07:49:48;;;;;;;;;;;;;;;;;;5051338;27;137118;-67
2022/06/21 07:52:14;;;;;;;;;;;;;;;;;;5048924;27;106369;-68
2022/06/21 07:54:40;;;;;;;;;;;;;;;;;;5033942;27;136496;-67
2022/06/21 07:57:07;;;;;;;;;;;;;;;;;;5051700;27;118778;-68
2022/06/21 07:59:34;;;;;;;;;;;;;;;;;;5049889;27;132805;-67
2022/06/21 08:07:30;;;;;;;;;;;;;;;;;;5044949;27;135649;-67
2022/06/21 08:09:56;;;;;;;;;;;;;;;;;;5048627;27;131721;-67
2022/06/21 08:12:22;;;;;;;;;;;;;;;;;;5037663;27;117175;-67
2022/06/21 08:14:49;;;;;;;;;;;;;;;;;;5047939;27;127007;-67
2022/06/21 08:17:16;;;;;;;;;;;;;;;;;;5048156;27;106919;-67
2022/06/21 08:19:42;;;;;;;;;;;;;;;;;;5046950;27;137156;-67
2022/06/21 08:22:08;;;;;;;;;;;;;;;;;;5048480;27;128919;-67
2022/06/21 08:24:35;;;;;;;;;;;;;;;;;;5050036;27;106953;-68
2022/06/21 08:27:01;;;;;;;;;;;;;;;;;;5044375;27;136526;-67
2022/06/21 08:29:28;;;;;;;;;;;;;;;;;;5041193;27;130570;-67
2022/06/21 08:31:55;;;;;;;;;;;;;;;;;;5049582;27;113180;-67
2022/06/21 08:34:23;;;;;;;;;;;;;;;;;;5037291;27;130907;-67
2022/06/21 08:36:50;;;;;;;;;;;;;;;;;;5029906;27;111508;-67
2022/06/21 08:39:16;;;;;;;;;;;;;;;;;;5048910;27;136471;-67
2022/06/21 08:41:58;;;;;;;;;;;;;;;;;;5047121;27;135514;-67
2022/06/21 08:44:24;;;;;;;;;;;;;;;;;;5042014;27;119064;-67
2022/06/21 08:46:50;;;;;;;;;;;;;;;;;;5048284;27;127181;-67
2022/06/21 08:49:16;;;;;;;;;;;;;;;;;;5041607;27;137976;-67
2022/06/21 08:51:43;;;;;;;;;;;;;;;;;;5029307;27;111132;-67
2022/06/21 08:54:10;;;;;;;;;;;;;;;;;;5043969;27;119217;-67
2022/06/21 08:56:36;;;;;;;;;;;;;;;;;;5049252;27;129249;-67
2022/06/21 08:59:02;;;;;;;;;;;;;;;;;;5043353;27;120173;-67
2022/06/21 09:01:29;;;;;;;;;;;;;;;;;;5049432;27;108140;-67
2022/06/21 09:03:55;;;;;;;;;;;;;;;;;;5048575;27;123226;-67
2022/06/21 09:06:22;;;;;;;;;;;;;;;;;;5047957;27;119247;-67
2022/06/21 09:08:48;;;;;;;;;;;;;;;;;;5048438;27;109304;-67
2022/06/21 09:11:17;;;;;;;;;;;;;;;;;;5048692;27;106495;-67
2022/06/21 09:13:43;;;;;;;;;;;;;;;;;;5046651;27;135828;-67
2022/06/21 09:16:09;;;;;;;;;;;;;;;;;;5050958;27;108009;-67
2022/06/21 09:18:36;;;;;;;;;;;;;;;;;;5041963;27;121976;-67
2022/06/21 09:21:02;;;;;;;;;;;;;;;;;;5046608;27;133505;-67
2022/06/21 09:23:28;;;;;;;;;;;;;;;;;;5037065;27;124077;-65
2022/06/21 09:25:54;;;;;;;;;;;;;;;;;;5035779;27;133966;-65
2022/06/21 09:28:21;;;;;;;;;;;;;;;;;;5038944;27;124674;-66
2022/06/21 09:30:47;;;;;;;;;;;;;;;;;;5041101;27;123419;-65
2022/06/21 09:33:13;;;;;;;;;;;;;;;;;;5046543;27;136084;-66
2022/06/21 09:35:40;;;;;;;;;;;;;;;;;;5038233;27;138221;-66
2022/06/21 09:38:06;;;;;;;;;;;;;;;;;;5043265;27;123782;-66
2022/06/21 09:40:35;;;;;;;;;;;;;;;;;;5046817;27;133934;-66
2022/06/21 09:43:11;;;;;;;;;;;;;;;;;;5037584;27;120413;-66
2022/06/21 09:45:37;;;;;;;;;;;;;;;;;;5040963;27;126425;-66
2022/06/21 09:48:04;;;;;;;;;;;;;;;;;;5038575;27;138261;-66
2022/06/21 09:50:30;;;;;;;;;;;;;;;;;;5031244;27;106370;-65
2022/06/21 09:52:57;;;;;;;;;;;;;;;;;;5031642;27;136089;-66
2022/06/21 09:55:24;;;;;;;;;;;;;;;;;;5042031;27;129801;-66
2022/06/21 09:57:51;;;;;;;;;;;;;;;;;;5037380;27;109196;-66
2022/06/21 10:00:18;;;;;;;;;;;;;;;;;;5047947;27;137475;-64
2022/06/21 10:02:44;;;;;;;;;;;;;;;;;;5053078;27;119292;-65
2022/06/21 10:05:10;;;;;;;;;;;;;;;;;;5047916;27;132626;-65
2022/06/21 10:07:37;;;;;;;;;;;;;;;;;;5047514;27;109952;-65
2022/06/21 10:10:08;;;;;;;;;;;;;;;;;;5046369;27;106569;-66
2022/06/21 10:12:34;;;;;;;;;;;;;;;;;;5043705;27;128737;-66
2022/06/21 10:15:00;;;;;;;;;;;;;;;;;;5048422;27;133215;-65
2022/06/21 10:17:27;;;;;;;;;;;;;;;;;;5045026;27;122134;-66
2022/06/21 10:19:53;;;;;;;;;;;;;;;;;;5051856;27;130252;-65
2022/06/21 10:22:19;;;;;;;;;;;;;;;;;;5040138;27;137523;-65
2022/06/21 10:24:46;;;;;;;;;;;;;;;;;;5051666;27;106265;-66
2022/06/21 10:27:13;;;;;;;;;;;;;;;;;;5044162;27;118460;-65
2022/06/21 10:29:39;;;;;;;;;;;;;;;;;;5046621;27;107080;-65
2022/06/21 10:32:06;;;;;;;;;;;;;;;;;;5044617;27;119102;-66
2022/06/21 10:34:32;;;;;;;;;;;;;;;;;;5039158;27;109871;-70
2022/06/21 10:36:59;;;;;;;;;;;;;;;;;;5037910;27;123819;-70
2022/06/21 10:39:25;;;;;;;;;;;;;;;;;;5044451;27;136652;-67
2022/06/21 10:44:38;;;;;;;;;;;;;;;;;;5045221;27;108465;-66
2022/06/21 10:47:04;;;;;;;;;;;;;;;;;;5042610;27;133128;-67
2022/06/21 10:49:30;;;;;;;;;;;;;;;;;;5050824;27;106183;-67
2022/06/21 10:51:57;;;;;;;;;;;;;;;;;;5047562;27;126267;-67
2022/06/21 10:54:23;;;;;;;;;;;;;;;;;;5049914;27;137074;-67
2022/06/21 11:01:17;;;;;;;;;;;;;;;;;;5050338;27;135265;-67
2022/06/21 11:02:20;;;;;;;;;;;;;;;;;;5049084;27;132710;-67
2022/06/21 11:04:47;;;;;;;;;;;;;;;;;;5032944;27;107443;-67
2022/06/21 11:07:13;;;;;;;;;;;;;;;;;;5052049;27;135604;-67
2022/06/21 11:09:40;;;;;;;;;;;;;;;;;;5049950;27;122673;-67
2022/06/21 11:14:51;;;;;;;;;;;;;;;;;;5048657;27;128663;-66
2022/06/21 11:17:17;;;;;;;;;;;;;;;;;;5044462;27;116408;-67
2022/06/21 11:19:44;;;;;;;;;;;;;;;;;;5049371;27;135638;-67
2022/06/21 11:22:11;;;;;;;;;;;;;;;;;;5050212;27;120640;-67
2022/06/21 11:24:37;;;;;;;;;;;;;;;;;;5048041;27;121200;-67
2022/06/21 11:27:04;;;;;;;;;;;;;;;;;;5049001;27;136192;-67
2022/06/21 11:29:30;;;;;;;;;;;;;;;;;;5035148;27;131185;-67
2022/06/21 11:31:57;;;;;;;;;;;;;;;;;;5044646;27;125136;-67
2022/06/21 11:34:23;;;;;;;;;;;;;;;;;;5047764;27;118736;-67
2022/06/21 11:36:49;;;;;;;;;;;;;;;;;;5039888;27;106297;-67
2022/06/21 11:39:16;;;;;;;;;;;;;;;;;;5045107;27;131932;-66
2022/06/21 11:44:27;;;;;;;;;;;;;;;;;;5043464;27;121656;-67
2022/06/21 11:46:53;;;;;;;;;;;;;;;;;;5049991;27;135442;-67
2022/06/21 11:49:20;;;;;;;;;;;;;;;;;;5046844;27;126850;-67
2022/06/21 11:51:52;;;;;;;;;;;;;;;;;;5053375;27;107110;-67
2022/06/21 11:54:19;;;;;;;;;;;;;;;;;;5047522;27;132518;-67
2022/06/21 11:56:45;;;;;;;;;;;;;;;;;;5049576;27;108405;-67
2022/06/21 11:59:11;;;;;;;;;;;;;;;;;;5048104;27;137238;-67
2022/06/21 12:01:38;;;;;;;;;;;;;;;;;;5047986;27;131943;-67
2022/06/21 12:04:04;;;;;;;;;;;;;;;;;;5031457;27;122882;-67
2022/06/21 12:06:30;;;;;;;;;;;;;;;;;;5036259;27;129333;-67
2022/06/21 12:09:00;;;;;;;;;;;;;;;;;;5038527;27;136745;-67
2022/06/21 12:11:26;;;;;;;;;;;;;;;;;;5035740;27;125399;-67
2022/06/21 12:13:52;;;;;;;;;;;;;;;;;;5032166;27;122309;-66
2022/06/21 12:16:19;;;;;;;;;;;;;;;;;;5048182;27;107033;-68
2022/06/21 12:18:45;;;;;;;;;;;;;;;;;;5041490;27;125232;-65
2022/06/21 12:21:11;;;;;;;;;;;;;;;;;;5041010;27;125085;-68
2022/06/21 12:23:41;;;;;;;;;;;;;;;;;;5043988;27;122333;-66
2022/06/21 12:26:07;;;;;;;;;;;;;;;;;;5042572;27;133233;-67
2022/06/21 12:28:33;;;;;;;;;;;;;;;;;;5046392;27;116675;-67
2022/06/21 12:31:00;;;;;;;;;;;;;;;;;;5044601;27;121765;-67
2022/06/21 12:33:26;;;;;;;;;;;;;;;;;;5041091;27;122912;-68
2022/06/21 12:35:52;;;;;;;;;;;;;;;;;;5042487;27;121016;-68
2022/06/21 12:38:19;;;;;;;;;;;;;;;;;;5043729;27;135897;-68
2022/06/21 12:40:45;;;;;;;;;;;;;;;;;;5047862;27;106982;-68
2022/06/21 12:43:12;;;;;;;;;;;;;;;;;;5046656;27;123468;-68
2022/06/21 12:45:38;;;;;;;;;;;;;;;;;;5042894;27;127817;-68
2022/06/21 12:48:05;;;;;;;;;;;;;;;;;;5035235;27;138868;-68
2022/06/21 12:50:32;;;;;;;;;;;;;;;;;;5031689;27;106393;-68
2022/06/21 12:52:58;;;;;;;;;;;;;;;;;;5041353;27;107413;-68
2022/06/21 12:55:25;;;;;;;;;;;;;;;;;;5050613;27;127524;-66
2022/06/21 12:57:51;;;;;;;;;;;;;;;;;;5038916;27;107773;-68
2022/06/21 13:00:17;;;;;;;;;;;;;;;;;;5052857;27;123453;-66
2022/06/21 13:02:45;;;;;;;;;;;;;;;;;;5059857;27;111984;-66
2022/06/21 13:05:11;;;;;;;;;;;;;;;;;;5052056;27;116605;-67
2022/06/21 13:07:37;;;;;;;;;;;;;;;;;;5041775;27;136099;-67
2022/06/21 13:10:06;;;;;;;;;;;;;;;;;;5045536;27;107621;-67
2022/06/21 13:12:32;;;;;;;;;;;;;;;;;;5047500;27;113653;-66
2022/06/21 13:14:59;;;;;;;;;;;;;;;;;;5047630;27;131376;-66
2022/06/21 13:17:25;;;;;;;;;;;;;;;;;;5057808;27;114017;-67
2022/06/21 13:19:57;;;;;;;;;;;;;;;;;;5040743;27;135980;-66
2022/06/21 13:22:23;;;;;;;;;;;;;;;;;;5049312;27;123660;-66
2022/06/21 13:24:50;;;;;;;;;;;;;;;;;;5062447;27;130967;-67
2022/06/21 13:27:17;;;;;;;;;;;;;;;;;;5059680;27;132677;-67
2022/06/21 13:29:43;;;;;;;;;;;;;;;;;;5064824;27;106504;-66
2022/06/21 13:32:09;;;;;;;;;;;;;;;;;;5035850;27;136502;-67
2022/06/21 13:34:36;;;;;;;;;;;;;;;;;;5045112;27;135880;-67
2022/06/21 13:37:02;;;;;;;;;;;;;;;;;;5048348;27;114524;-67
2022/06/21 13:39:28;;;;;;;;;;;;;;;;;;5057866;27;126913;-67
2022/06/21 13:44:39;;;;;;;;;;;;;;;;;;5035072;27;128038;-67
2022/06/21 13:47:06;;;;;;;;;;;;;;;;;;5042311;27;127371;-66
2022/06/21 13:49:32;;;;;;;;;;;;;;;;;;5042304;27;123260;-67
2022/06/21 13:51:59;;;;;;;;;;;;;;;;;;5049028;27;119196;-66
2022/06/21 13:54:25;;;;;;;;;;;;;;;;;;5057540;27;108973;-66
2022/06/21 13:56:51;;;;;;;;;;;;;;;;;;5050352;27;124985;-66
2022/06/21 13:59:18;;;;;;;;;;;;;;;;;;5056242;27;136948;-66
2022/06/21 14:01:44;;;;;;;;;;;;;;;;;;5067458;27;136148;-67
2022/06/21 14:04:10;;;;;;;;;;;;;;;;;;5044306;27;138249;-66
2022/06/21 14:06:37;;;;;;;;;;;;;;;;;;5061420;27;136545;-67
2022/06/21 14:09:03;;;;;;;;;;;;;;;;;;5044516;27;113408;-66
2022/06/21 14:11:29;;;;;;;;;;;;;;;;;;5053268;27;117021;-66
2022/06/21 14:13:56;;;;;;;;;;;;;;;;;;5048444;27;132023;-66
2022/06/21 14:16:22;;;;;;;;;;;;;;;;;;5044399;27;120329;-67
2022/06/21 14:18:50;;;;;;;;;;;;;;;;;;5046237;27;127666;-67
2022/06/21 14:21:16;;;;;;;;;;;;;;;;;;5042868;27;132905;-66
2022/06/21 14:23:43;;;;;;;;;;;;;;;;;;5050285;27;120737;-67
2022/06/21 14:26:11;;;;;;;;;;;;;;;;;;5050348;27;137249;-68
2022/06/21 14:28:38;;;;;;;;;;;;;;;;;;5034469;27;112932;-66
2022/06/21 14:31:05;;;;;;;;;;;;;;;;;;5039397;27;111747;-67
2022/06/21 14:33:31;;;;;;;;;;;;;;;;;;5041081;27;135297;-67
2022/06/21 14:35:57;;;;;;;;;;;;;;;;;;5038184;27;108156;-67
2022/06/21 14:38:24;;;;;;;;;;;;;;;;;;5050038;27;137281;-67
2022/06/21 14:40:50;;;;;;;;;;;;;;;;;;5037909;27;135712;-67
2022/06/21 14:43:16;;;;;;;;;;;;;;;;;;5041529;27;121109;-67
2022/06/21 14:45:44;;;;;;;;;;;;;;;;;;5042699;27;118021;-67
2022/06/21 14:48:10;;;;;;;;;;;;;;;;;;5046915;27;111533;-67
2022/06/21 14:50:36;;;;;;;;;;;;;;;;;;5039742;27;136893;-67
2022/06/21 14:53:03;;;;;;;;;;;;;;;;;;5041222;27;124848;-70
2022/06/21 14:55:29;;;;;;;;;;;;;;;;;;5043010;27;126894;-68
2022/06/21 14:58:15;;;;;;;;;;;;;;;;;;5040714;27;107191;-69
2022/06/21 15:00:42;;;;;;;;;;;;;;;;;;5048879;27;114164;-67
2022/06/21 15:03:24;;;;;;;;;;;;;;;;;;5045736;27;119006;-70
2022/06/21 15:05:51;;;;;;;;;;;;;;;;;;5053078;27;122142;-68
2022/06/21 15:08:18;;;;;;;;;;;;;;;;;;5047310;27;107339;-71
2022/06/21 15:10:44;;;;;;;;;;;;;;;;;;5045856;27;137479;-69
2022/06/21 15:13:10;;;;;;;;;;;;;;;;;;5040217;27;136328;-70
2022/06/21 15:15:37;;;;;;;;;;;;;;;;;;5046347;27;106878;-69
2022/06/21 15:18:04;;;;;;;;;;;;;;;;;;5041157;27;133628;-68
2022/06/21 15:20:30;;;;;;;;;;;;;;;;;;5048849;27;106741;-69
2022/06/21 15:22:57;;;;;;;;;;;;;;;;;;5051101;27;105861;-68
2022/06/21 15:25:23;;;;;;;;;;;;;;;;;;5046695;27;131894;-68
2022/06/21 15:27:50;;;;;;;;;;;;;;;;;;5044197;27;114823;-69
2022/06/21 15:30:16;;;;;;;;;;;;;;;;;;5045630;27;135644;-71
2022/06/21 15:32:42;;;;;;;;;;;;;;;;;;5046825;27;107112;-70
2022/06/21 15:35:09;;;;;;;;;;;;;;;;;;5045634;27;107966;-70
2022/06/21 15:37:38;;;;;;;;;;;;;;;;;;5046340;27;111922;-69
2022/06/21 15:40:05;;;;;;;;;;;;;;;;;;5050299;27;108480;-70
2022/06/21 15:42:32;;;;;;;;;;;;;;;;;;5045486;27;115835;-70
2022/06/21 15:44:58;;;;;;;;;;;;;;;;;;5041677;27;107381;-70
2022/06/21 15:50:13;;;;;;;;;;;;;;;;;;5038371;27;108727;-68
2022/06/21 15:52:39;;;;;;;;;;;;;;;;;;5044271;27;123059;-68
2022/06/21 15:55:07;;;;;;;;;;;;;;;;;;5043207;27;117600;-68
2022/06/21 15:57:33;;;;;;;;;;;;;;;;;;5035340;27;136376;-67
2022/06/21 15:59:59;;;;;;;;;;;;;;;;;;5043147;27;122349;-68
2022/06/21 16:02:26;;;;;;;;;;;;;;;;;;5044256;27;122507;-68
2022/06/21 16:04:52;;;;;;;;;;;;;;;;;;5046411;27;133017;-67
2022/06/21 16:07:19;;;;;;;;;;;;;;;;;;5036817;27;134203;-67
2022/06/21 16:09:45;;;;;;;;;;;;;;;;;;5045322;27;115034;-67
2022/06/21 16:12:11;;;;;;;;;;;;;;;;;;5044682;27;137719;-66
2022/06/21 16:14:38;;;;;;;;;;;;;;;;;;5047924;27;106362;-67
2022/06/21 16:17:04;;;;;;;;;;;;;;;;;;5044811;27;135130;-67
2022/06/21 16:19:31;;;;;;;;;;;;;;;;;;5040259;27;108847;-66
2022/06/21 16:21:58;;;;;;;;;;;;;;;;;;5045406;27;111762;-67
2022/06/21 16:24:27;;;;;;;;;;;;;;;;;;5042435;27;135027;-66
2022/06/21 16:26:53;;;;;;;;;;;;;;;;;;5039467;27;119791;-67
2022/06/21 16:29:35;;;;;;;;;;;;;;;;;;5043162;27;123449;-65
2022/06/21 16:34:47;;;;;;;;;;;;;;;;;;5047242;27;106402;-65
2022/06/21 16:37:14;;;;;;;;;;;;;;;;;;5041257;27;137259;-65
2022/06/21 16:39:40;;;;;;;;;;;;;;;;;;5048579;27;124531;-65
2022/06/21 16:44:52;;;;;;;;;;;;;;;;;;5037755;27;107205;-66
2022/06/21 16:47:19;;;;;;;;;;;;;;;;;;5031610;27;137028;-64
2022/06/21 16:49:46;;;;;;;;;;;;;;;;;;5037315;27;117134;-66
2022/06/21 16:52:12;;;;;;;;;;;;;;;;;;5046577;27;133979;-66
2022/06/21 16:54:39;;;;;;;;;;;;;;;;;;5046539;27;116886;-66